sensor_id;sensor_type;location;lat;lon;timestamp;P1;durP1;ratioP1;P2;durP2;ratioP2
53483;SDS011;75581;50.088;19.966;2024-03-25T00:00:26;15.10;;;5.90;;
53483;SDS011;75581;50.088;19.966;2024-03-25T00:03:14;11.00;;;6.20;;
53483;SDS011;75581;50.088;19.966;2024-03-25T00:05:41;9.70;;;5.30;;
53483;SDS011;75581;50.088;19.966;2024-03-25T00:08:09;11.50;;;5.90;;
53483;SDS011;75581;50.088;19.966;2024-03-25T00:10:37;13.40;;;6.50;;
53483;SDS011;75581;50.088;19.966;2024-03-25T00:13:05;14.10;;;7.80;;
53483;SDS011;75581;50.088;19.966;2024-03-25T00:15:32;13.70;;;8.60;;
53483;SDS011;75581;50.088;19.966;2024-03-25T00:18:01;15.80;;;8.60;;
53483;SDS011;75581;50.088;19.966;2024-03-25T00:20:29;18.60;;;9.70;;
53483;SDS011;75581;50.088;19.966;2024-03-25T00:22:56;15.60;;;9.80;;
53483;SDS011;75581;50.088;19.966;2024-03-25T00:25:24;15.90;;;9.40;;
53483;SDS011;75581;50.088;19.966;2024-03-25T00:27:52;15.80;;;10.10;;
53483;SDS011;75581;50.088;19.966;2024-03-25T00:30:20;16.60;;;9.90;;
53483;SDS011;75581;50.088;19.966;2024-03-25T00:32:49;17.60;;;10.10;;
53483;SDS011;75581;50.088;19.966;2024-03-25T00:35:16;17.70;;;9.60;;
53483;SDS011;75581;50.088;19.966;2024-03-25T00:37:45;17.40;;;10.50;;
53483;SDS011;75581;50.088;19.966;2024-03-25T00:40:12;21.10;;;12.20;;
53483;SDS011;75581;50.088;19.966;2024-03-25T00:42:40;22.80;;;11.80;;
53483;SDS011;75581;50.088;19.966;2024-03-25T00:45:08;17.30;;;10.80;;
53483;SDS011;75581;50.088;19.966;2024-03-25T00:47:37;14.20;;;8.90;;
53483;SDS011;75581;50.088;19.966;2024-03-25T00:50:05;14.70;;;8.60;;
53483;SDS011;75581;50.088;19.966;2024-03-25T00:52:33;15.60;;;8.30;;
53483;SDS011;75581;50.088;19.966;2024-03-25T00:55:01;14.90;;;9.00;;
53483;SDS011;75581;50.088;19.966;2024-03-25T00:57:29;17.00;;;10.50;;
53483;SDS011;75581;50.088;19.966;2024-03-25T00:59:57;19.80;;;10.90;;
53483;SDS011;75581;50.088;19.966;2024-03-25T01:02:25;18.10;;;11.30;;
53483;SDS011;75581;50.088;19.966;2024-03-25T01:04:54;21.30;;;11.20;;
53483;SDS011;75581;50.088;19.966;2024-03-25T01:07:23;20.20;;;11.60;;
53483;SDS011;75581;50.088;19.966;2024-03-25T01:09:51;24.80;;;12.80;;
53483;SDS011;75581;50.088;19.966;2024-03-25T01:12:19;21.90;;;12.20;;
53483;SDS011;75581;50.088;19.966;2024-03-25T01:14:46;20.90;;;12.70;;
53483;SDS011;75581;50.088;19.966;2024-03-25T01:17:14;22.30;;;12.10;;
53483;SDS011;75581;50.088;19.966;2024-03-25T01:19:42;19.30;;;11.40;;
53483;SDS011;75581;50.088;19.966;2024-03-25T01:22:10;18.50;;;11.30;;
53483;SDS011;75581;50.088;19.966;2024-03-25T01:24:38;21.00;;;11.70;;
53483;SDS011;75581;50.088;19.966;2024-03-25T01:27:07;20.80;;;11.20;;
53483;SDS011;75581;50.088;19.966;2024-03-25T01:29:34;19.10;;;11.10;;
53483;SDS011;75581;50.088;19.966;2024-03-25T01:32:02;24.60;;;11.50;;
53483;SDS011;75581;50.088;19.966;2024-03-25T01:34:31;18.40;;;10.20;;
53483;SDS011;75581;50.088;19.966;2024-03-25T01:36:59;18.20;;;9.30;;
53483;SDS011;75581;50.088;19.966;2024-03-25T01:39:27;13.80;;;8.70;;
53483;SDS011;75581;50.088;19.966;2024-03-25T01:41:54;17.50;;;10.80;;
53483;SDS011;75581;50.088;19.966;2024-03-25T01:44:22;14.00;;;9.70;;
53483;SDS011;75581;50.088;19.966;2024-03-25T01:46:51;16.90;;;9.30;;
53483;SDS011;75581;50.088;19.966;2024-03-25T01:49:19;16.50;;;9.90;;
53483;SDS011;75581;50.088;19.966;2024-03-25T01:51:47;15.90;;;9.60;;
53483;SDS011;75581;50.088;19.966;2024-03-25T01:54:16;16.50;;;9.30;;
53483;SDS011;75581;50.088;19.966;2024-03-25T01:56:44;16.60;;;9.60;;
53483;SDS011;75581;50.088;19.966;2024-03-25T01:59:14;16.20;;;9.60;;
53483;SDS011;75581;50.088;19.966;2024-03-25T02:01:44;12.90;;;7.60;;
53483;SDS011;75581;50.088;19.966;2024-03-25T02:04:13;12.70;;;8.10;;
53483;SDS011;75581;50.088;19.966;2024-03-25T02:06:41;13.70;;;7.70;;
53483;SDS011;75581;50.088;19.966;2024-03-25T02:09:11;11.20;;;7.40;;
53483;SDS011;75581;50.088;19.966;2024-03-25T02:11:40;11.20;;;6.80;;
53483;SDS011;75581;50.088;19.966;2024-03-25T02:14:09;12.10;;;7.10;;
53483;SDS011;75581;50.088;19.966;2024-03-25T02:16:36;9.30;;;5.50;;
53483;SDS011;75581;50.088;19.966;2024-03-25T02:19:04;8.90;;;6.20;;
53483;SDS011;75581;50.088;19.966;2024-03-25T02:21:32;8.40;;;5.80;;
53483;SDS011;75581;50.088;19.966;2024-03-25T02:24:00;7.80;;;5.10;;
53483;SDS011;75581;50.088;19.966;2024-03-25T02:26:32;8.00;;;5.30;;
53483;SDS011;75581;50.088;19.966;2024-03-25T02:29:00;8.80;;;5.10;;
53483;SDS011;75581;50.088;19.966;2024-03-25T02:31:28;7.30;;;4.80;;
53483;SDS011;75581;50.088;19.966;2024-03-25T02:33:56;8.40;;;5.30;;
53483;SDS011;75581;50.088;19.966;2024-03-25T02:36:23;7.70;;;4.70;;
53483;SDS011;75581;50.088;19.966;2024-03-25T02:38:51;7.00;;;4.80;;
53483;SDS011;75581;50.088;19.966;2024-03-25T02:41:19;8.80;;;4.60;;
53483;SDS011;75581;50.088;19.966;2024-03-25T02:43:49;7.70;;;4.90;;
53483;SDS011;75581;50.088;19.966;2024-03-25T02:49:39;6.60;;;4.50;;
53483;SDS011;75581;50.088;19.966;2024-03-25T02:52:06;7.70;;;4.80;;
53483;SDS011;75581;50.088;19.966;2024-03-25T02:54:34;8.20;;;4.80;;
53483;SDS011;75581;50.088;19.966;2024-03-25T02:57:02;5.30;;;4.00;;
53483;SDS011;75581;50.088;19.966;2024-03-25T02:59:30;6.50;;;4.20;;
53483;SDS011;75581;50.088;19.966;2024-03-25T03:01:57;6.70;;;4.40;;
53483;SDS011;75581;50.088;19.966;2024-03-25T03:04:25;7.80;;;4.40;;
53483;SDS011;75581;50.088;19.966;2024-03-25T03:06:53;6.20;;;4.10;;
53483;SDS011;75581;50.088;19.966;2024-03-25T03:09:21;6.20;;;4.10;;
53483;SDS011;75581;50.088;19.966;2024-03-25T03:11:48;6.00;;;4.10;;
53483;SDS011;75581;50.088;19.966;2024-03-25T03:14:16;8.50;;;4.30;;
53483;SDS011;75581;50.088;19.966;2024-03-25T03:16:44;6.60;;;4.20;;
53483;SDS011;75581;50.088;19.966;2024-03-25T03:19:12;6.50;;;4.00;;
53483;SDS011;75581;50.088;19.966;2024-03-25T03:21:39;5.60;;;3.90;;
53483;SDS011;75581;50.088;19.966;2024-03-25T03:24:07;7.30;;;4.30;;
53483;SDS011;75581;50.088;19.966;2024-03-25T03:26:35;6.40;;;4.10;;
53483;SDS011;75581;50.088;19.966;2024-03-25T03:29:02;8.20;;;5.30;;
53483;SDS011;75581;50.088;19.966;2024-03-25T03:31:30;8.10;;;5.70;;
53483;SDS011;75581;50.088;19.966;2024-03-25T03:33:58;10.10;;;5.80;;
53483;SDS011;75581;50.088;19.966;2024-03-25T03:36:26;11.30;;;6.50;;
53483;SDS011;75581;50.088;19.966;2024-03-25T03:38:53;9.30;;;5.90;;
53483;SDS011;75581;50.088;19.966;2024-03-25T03:41:22;8.90;;;5.70;;
53483;SDS011;75581;50.088;19.966;2024-03-25T03:43:49;11.60;;;5.70;;
53483;SDS011;75581;50.088;19.966;2024-03-25T03:46:17;9.10;;;5.90;;
53483;SDS011;75581;50.088;19.966;2024-03-25T03:48:45;10.30;;;6.20;;
53483;SDS011;75581;50.088;19.966;2024-03-25T03:51:13;10.50;;;6.20;;
53483;SDS011;75581;50.088;19.966;2024-03-25T03:53:41;13.80;;;7.00;;
53483;SDS011;75581;50.088;19.966;2024-03-25T03:56:09;13.70;;;7.10;;
53483;SDS011;75581;50.088;19.966;2024-03-25T03:58:37;10.70;;;7.20;;
53483;SDS011;75581;50.088;19.966;2024-03-25T04:01:04;14.00;;;7.20;;
53483;SDS011;75581;50.088;19.966;2024-03-25T04:03:42;10.90;;;7.20;;
53483;SDS011;75581;50.088;19.966;2024-03-25T04:06:12;16.80;;;7.50;;
53483;SDS011;75581;50.088;19.966;2024-03-25T04:08:40;14.30;;;7.10;;
53483;SDS011;75581;50.088;19.966;2024-03-25T04:11:08;13.20;;;6.20;;
53483;SDS011;75581;50.088;19.966;2024-03-25T04:13:37;9.70;;;6.20;;
53483;SDS011;75581;50.088;19.966;2024-03-25T04:16:05;10.60;;;6.30;;
53483;SDS011;75581;50.088;19.966;2024-03-25T04:18:33;11.00;;;6.10;;
53483;SDS011;75581;50.088;19.966;2024-03-25T04:21:01;9.10;;;6.00;;
53483;SDS011;75581;50.088;19.966;2024-03-25T04:23:29;9.70;;;6.50;;
53483;SDS011;75581;50.088;19.966;2024-03-25T04:26:00;10.40;;;6.60;;
53483;SDS011;75581;50.088;19.966;2024-03-25T04:28:32;9.20;;;6.30;;
53483;SDS011;75581;50.088;19.966;2024-03-25T04:30:59;12.40;;;6.60;;
53483;SDS011;75581;50.088;19.966;2024-03-25T04:33:27;11.70;;;6.80;;
53483;SDS011;75581;50.088;19.966;2024-03-25T04:35:54;12.50;;;6.50;;
53483;SDS011;75581;50.088;19.966;2024-03-25T04:38:22;11.50;;;6.80;;
53483;SDS011;75581;50.088;19.966;2024-03-25T04:40:50;10.30;;;7.00;;
53483;SDS011;75581;50.088;19.966;2024-03-25T04:43:18;11.40;;;6.20;;
53483;SDS011;75581;50.088;19.966;2024-03-25T04:45:46;12.70;;;6.90;;
53483;SDS011;75581;50.088;19.966;2024-03-25T04:48:13;15.40;;;6.70;;
53483;SDS011;75581;50.088;19.966;2024-03-25T04:50:41;13.80;;;7.20;;
53483;SDS011;75581;50.088;19.966;2024-03-25T04:53:09;13.20;;;7.30;;
53483;SDS011;75581;50.088;19.966;2024-03-25T04:55:37;13.00;;;7.30;;
53483;SDS011;75581;50.088;19.966;2024-03-25T04:58:04;10.30;;;7.40;;
53483;SDS011;75581;50.088;19.966;2024-03-25T05:00:32;13.30;;;7.20;;
53483;SDS011;75581;50.088;19.966;2024-03-25T05:03:00;13.20;;;6.80;;
53483;SDS011;75581;50.088;19.966;2024-03-25T05:05:27;11.40;;;6.80;;
53483;SDS011;75581;50.088;19.966;2024-03-25T05:07:55;17.30;;;7.50;;
53483;SDS011;75581;50.088;19.966;2024-03-25T05:10:23;12.00;;;6.50;;
53483;SDS011;75581;50.088;19.966;2024-03-25T05:12:50;20.50;;;7.50;;
53483;SDS011;75581;50.088;19.966;2024-03-25T05:15:18;14.60;;;6.80;;
53483;SDS011;75581;50.088;19.966;2024-03-25T05:17:46;12.10;;;6.90;;
53483;SDS011;75581;50.088;19.966;2024-03-25T05:20:13;13.60;;;7.20;;
53483;SDS011;75581;50.088;19.966;2024-03-25T05:22:41;11.00;;;6.40;;
53483;SDS011;75581;50.088;19.966;2024-03-25T05:25:09;12.10;;;6.10;;
53483;SDS011;75581;50.088;19.966;2024-03-25T05:27:37;10.20;;;5.90;;
53483;SDS011;75581;50.088;19.966;2024-03-25T05:30:05;10.50;;;6.50;;
53483;SDS011;75581;50.088;19.966;2024-03-25T05:32:33;9.50;;;6.20;;
53483;SDS011;75581;50.088;19.966;2024-03-25T05:35:02;7.30;;;4.90;;
53483;SDS011;75581;50.088;19.966;2024-03-25T05:37:30;8.20;;;4.40;;
53483;SDS011;75581;50.088;19.966;2024-03-25T05:40:00;6.00;;;4.10;;
53483;SDS011;75581;50.088;19.966;2024-03-25T05:42:28;5.00;;;3.20;;
53483;SDS011;75581;50.088;19.966;2024-03-25T05:44:55;4.10;;;2.90;;
53483;SDS011;75581;50.088;19.966;2024-03-25T05:47:23;5.80;;;2.70;;
53483;SDS011;75581;50.088;19.966;2024-03-25T05:49:51;7.60;;;3.20;;
53483;SDS011;75581;50.088;19.966;2024-03-25T05:52:20;4.00;;;3.20;;
53483;SDS011;75581;50.088;19.966;2024-03-25T05:54:47;4.30;;;2.80;;
53483;SDS011;75581;50.088;19.966;2024-03-25T05:57:15;3.90;;;2.60;;
53483;SDS011;75581;50.088;19.966;2024-03-25T05:59:43;3.70;;;2.30;;
53483;SDS011;75581;50.088;19.966;2024-03-25T06:02:11;3.50;;;2.10;;
53483;SDS011;75581;50.088;19.966;2024-03-25T06:04:38;3.30;;;2.50;;
53483;SDS011;75581;50.088;19.966;2024-03-25T06:07:06;3.50;;;2.40;;
53483;SDS011;75581;50.088;19.966;2024-03-25T06:09:33;4.20;;;2.70;;
53483;SDS011;75581;50.088;19.966;2024-03-25T06:12:01;4.30;;;2.80;;
53483;SDS011;75581;50.088;19.966;2024-03-25T06:14:30;5.70;;;2.80;;
53483;SDS011;75581;50.088;19.966;2024-03-25T06:16:57;5.90;;;2.40;;
53483;SDS011;75581;50.088;19.966;2024-03-25T06:19:25;3.40;;;2.00;;
53483;SDS011;75581;50.088;19.966;2024-03-25T06:21:53;3.10;;;2.00;;
53483;SDS011;75581;50.088;19.966;2024-03-25T06:24:20;3.40;;;1.90;;
53483;SDS011;75581;50.088;19.966;2024-03-25T06:26:48;2.00;;;1.70;;
53483;SDS011;75581;50.088;19.966;2024-03-25T06:29:18;2.00;;;1.70;;
53483;SDS011;75581;50.088;19.966;2024-03-25T06:31:46;2.30;;;1.60;;
53483;SDS011;75581;50.088;19.966;2024-03-25T06:34:33;3.10;;;1.90;;
53483;SDS011;75581;50.088;19.966;2024-03-25T06:37:00;3.60;;;2.00;;
53483;SDS011;75581;50.088;19.966;2024-03-25T06:39:28;3.10;;;2.10;;
53483;SDS011;75581;50.088;19.966;2024-03-25T06:41:56;3.10;;;2.10;;
53483;SDS011;75581;50.088;19.966;2024-03-25T06:44:24;3.40;;;2.10;;
53483;SDS011;75581;50.088;19.966;2024-03-25T06:46:52;3.40;;;2.00;;
53483;SDS011;75581;50.088;19.966;2024-03-25T06:49:19;3.00;;;2.10;;
53483;SDS011;75581;50.088;19.966;2024-03-25T06:51:47;3.40;;;2.40;;
53483;SDS011;75581;50.088;19.966;2024-03-25T06:54:15;3.30;;;2.40;;
53483;SDS011;75581;50.088;19.966;2024-03-25T06:56:43;3.40;;;2.50;;
53483;SDS011;75581;50.088;19.966;2024-03-25T06:59:11;2.70;;;2.20;;
53483;SDS011;75581;50.088;19.966;2024-03-25T07:01:39;3.30;;;2.40;;
53483;SDS011;75581;50.088;19.966;2024-03-25T07:04:07;3.20;;;2.40;;
53483;SDS011;75581;50.088;19.966;2024-03-25T07:06:34;3.20;;;2.50;;
53483;SDS011;75581;50.088;19.966;2024-03-25T07:09:02;4.00;;;2.50;;
53483;SDS011;75581;50.088;19.966;2024-03-25T07:11:31;3.70;;;2.20;;
53483;SDS011;75581;50.088;19.966;2024-03-25T07:13:59;3.40;;;2.20;;
53483;SDS011;75581;50.088;19.966;2024-03-25T07:16:26;3.10;;;2.00;;
53483;SDS011;75581;50.088;19.966;2024-03-25T07:18:55;4.20;;;2.40;;
53483;SDS011;75581;50.088;19.966;2024-03-25T07:21:23;4.00;;;2.40;;
53483;SDS011;75581;50.088;19.966;2024-03-25T07:23:50;3.90;;;2.30;;
53483;SDS011;75581;50.088;19.966;2024-03-25T07:26:18;3.90;;;2.60;;
53483;SDS011;75581;50.088;19.966;2024-03-25T07:28:46;2.60;;;2.10;;
53483;SDS011;75581;50.088;19.966;2024-03-25T07:31:13;2.60;;;1.80;;
53483;SDS011;75581;50.088;19.966;2024-03-25T07:33:41;3.10;;;2.70;;
53483;SDS011;75581;50.088;19.966;2024-03-25T07:36:09;2.20;;;1.70;;
53483;SDS011;75581;50.088;19.966;2024-03-25T07:38:37;3.70;;;2.30;;
53483;SDS011;75581;50.088;19.966;2024-03-25T07:41:05;2.90;;;2.10;;
53483;SDS011;75581;50.088;19.966;2024-03-25T07:43:33;3.50;;;2.40;;
53483;SDS011;75581;50.088;19.966;2024-03-25T07:46:01;3.90;;;2.70;;
53483;SDS011;75581;50.088;19.966;2024-03-25T07:48:28;3.30;;;2.60;;
53483;SDS011;75581;50.088;19.966;2024-03-25T07:50:56;3.50;;;2.50;;
53483;SDS011;75581;50.088;19.966;2024-03-25T07:53:24;3.60;;;2.70;;
53483;SDS011;75581;50.088;19.966;2024-03-25T07:55:52;4.10;;;2.70;;
53483;SDS011;75581;50.088;19.966;2024-03-25T07:58:19;3.90;;;2.80;;
53483;SDS011;75581;50.088;19.966;2024-03-25T08:00:47;3.60;;;3.00;;
53483;SDS011;75581;50.088;19.966;2024-03-25T08:03:15;3.80;;;2.90;;
53483;SDS011;75581;50.088;19.966;2024-03-25T08:05:42;4.30;;;3.60;;
53483;SDS011;75581;50.088;19.966;2024-03-25T08:08:10;4.30;;;3.40;;
53483;SDS011;75581;50.088;19.966;2024-03-25T08:10:37;4.10;;;3.30;;
53483;SDS011;75581;50.088;19.966;2024-03-25T08:13:05;3.50;;;3.10;;
53483;SDS011;75581;50.088;19.966;2024-03-25T08:15:33;4.10;;;3.10;;
53483;SDS011;75581;50.088;19.966;2024-03-25T08:18:01;5.40;;;4.10;;
53483;SDS011;75581;50.088;19.966;2024-03-25T08:20:28;4.90;;;3.90;;
53483;SDS011;75581;50.088;19.966;2024-03-25T08:22:56;5.50;;;4.30;;
53483;SDS011;75581;50.088;19.966;2024-03-25T08:25:24;5.60;;;4.10;;
53483;SDS011;75581;50.088;19.966;2024-03-25T08:27:52;5.30;;;4.60;;
53483;SDS011;75581;50.088;19.966;2024-03-25T08:30:19;4.00;;;3.60;;
53483;SDS011;75581;50.088;19.966;2024-03-25T08:32:47;6.40;;;3.90;;
53483;SDS011;75581;50.088;19.966;2024-03-25T08:35:15;4.90;;;3.90;;
53483;SDS011;75581;50.088;19.966;2024-03-25T08:37:43;6.20;;;4.40;;
53483;SDS011;75581;50.088;19.966;2024-03-25T08:40:11;4.40;;;3.80;;
53483;SDS011;75581;50.088;19.966;2024-03-25T08:42:39;4.50;;;3.70;;
53483;SDS011;75581;50.088;19.966;2024-03-25T08:45:07;5.00;;;3.80;;
53483;SDS011;75581;50.088;19.966;2024-03-25T08:47:35;5.20;;;4.00;;
53483;SDS011;75581;50.088;19.966;2024-03-25T08:50:05;5.60;;;3.30;;
53483;SDS011;75581;50.088;19.966;2024-03-25T08:52:33;6.80;;;3.30;;
53483;SDS011;75581;50.088;19.966;2024-03-25T08:55:01;4.30;;;3.90;;
53483;SDS011;75581;50.088;19.966;2024-03-25T08:57:29;5.30;;;4.10;;
53483;SDS011;75581;50.088;19.966;2024-03-25T08:59:57;4.80;;;3.80;;
53483;SDS011;75581;50.088;19.966;2024-03-25T09:02:24;3.90;;;3.30;;
53483;SDS011;75581;50.088;19.966;2024-03-25T09:04:52;4.20;;;3.20;;
53483;SDS011;75581;50.088;19.966;2024-03-25T09:07:20;5.60;;;3.00;;
53483;SDS011;75581;50.088;19.966;2024-03-25T09:09:48;3.90;;;3.10;;
53483;SDS011;75581;50.088;19.966;2024-03-25T09:12:34;3.20;;;2.90;;
53483;SDS011;75581;50.088;19.966;2024-03-25T09:15:02;8.30;;;3.30;;
53483;SDS011;75581;50.088;19.966;2024-03-25T09:17:30;5.20;;;3.80;;
53483;SDS011;75581;50.088;19.966;2024-03-25T09:19:58;4.40;;;3.20;;
53483;SDS011;75581;50.088;19.966;2024-03-25T09:22:26;5.40;;;3.00;;
53483;SDS011;75581;50.088;19.966;2024-03-25T09:24:54;5.00;;;3.40;;
53483;SDS011;75581;50.088;19.966;2024-03-25T09:27:22;4.10;;;3.50;;
53483;SDS011;75581;50.088;19.966;2024-03-25T09:29:51;5.10;;;3.20;;
53483;SDS011;75581;50.088;19.966;2024-03-25T09:32:20;5.60;;;3.70;;
53483;SDS011;75581;50.088;19.966;2024-03-25T09:34:48;3.80;;;3.10;;
53483;SDS011;75581;50.088;19.966;2024-03-25T09:37:17;5.30;;;3.60;;
53483;SDS011;75581;50.088;19.966;2024-03-25T09:39:45;5.10;;;3.80;;
53483;SDS011;75581;50.088;19.966;2024-03-25T09:42:14;5.20;;;3.80;;
53483;SDS011;75581;50.088;19.966;2024-03-25T09:44:46;4.80;;;3.90;;
53483;SDS011;75581;50.088;19.966;2024-03-25T09:47:13;3.80;;;3.30;;
53483;SDS011;75581;50.088;19.966;2024-03-25T09:49:41;7.40;;;3.80;;
53483;SDS011;75581;50.088;19.966;2024-03-25T09:52:11;4.10;;;3.50;;
53483;SDS011;75581;50.088;19.966;2024-03-25T09:54:39;4.40;;;3.20;;
53483;SDS011;75581;50.088;19.966;2024-03-25T09:57:07;4.70;;;2.80;;
53483;SDS011;75581;50.088;19.966;2024-03-25T09:59:36;3.00;;;2.60;;
53483;SDS011;75581;50.088;19.966;2024-03-25T10:02:04;2.90;;;2.20;;
53483;SDS011;75581;50.088;19.966;2024-03-25T10:04:32;3.70;;;2.60;;
53483;SDS011;75581;50.088;19.966;2024-03-25T10:07:00;3.50;;;2.20;;
53483;SDS011;75581;50.088;19.966;2024-03-25T10:09:28;4.30;;;2.20;;
53483;SDS011;75581;50.088;19.966;2024-03-25T10:11:55;4.10;;;2.70;;
53483;SDS011;75581;50.088;19.966;2024-03-25T10:14:23;3.20;;;2.80;;
53483;SDS011;75581;50.088;19.966;2024-03-25T10:16:52;3.50;;;2.80;;
53483;SDS011;75581;50.088;19.966;2024-03-25T10:19:19;2.40;;;2.20;;
53483;SDS011;75581;50.088;19.966;2024-03-25T10:21:47;3.50;;;2.60;;
53483;SDS011;75581;50.088;19.966;2024-03-25T10:24:16;3.20;;;2.30;;
53483;SDS011;75581;50.088;19.966;2024-03-25T10:26:44;3.40;;;2.30;;
53483;SDS011;75581;50.088;19.966;2024-03-25T10:29:12;3.40;;;2.40;;
53483;SDS011;75581;50.088;19.966;2024-03-25T10:31:40;3.30;;;2.60;;
53483;SDS011;75581;50.088;19.966;2024-03-25T10:34:08;3.40;;;2.80;;
53483;SDS011;75581;50.088;19.966;2024-03-25T10:36:35;3.20;;;2.50;;
53483;SDS011;75581;50.088;19.966;2024-03-25T10:39:03;3.80;;;2.30;;
53483;SDS011;75581;50.088;19.966;2024-03-25T10:41:34;2.50;;;2.30;;
53483;SDS011;75581;50.088;19.966;2024-03-25T10:44:04;2.90;;;2.60;;
53483;SDS011;75581;50.088;19.966;2024-03-25T10:46:34;4.90;;;2.90;;
53483;SDS011;75581;50.088;19.966;2024-03-25T10:49:07;3.60;;;2.80;;
53483;SDS011;75581;50.088;19.966;2024-03-25T10:51:43;4.00;;;2.60;;
53483;SDS011;75581;50.088;19.966;2024-03-25T10:54:12;2.70;;;2.40;;
53483;SDS011;75581;50.088;19.966;2024-03-25T10:56:41;2.60;;;2.30;;
53483;SDS011;75581;50.088;19.966;2024-03-25T10:59:10;3.00;;;2.00;;
53483;SDS011;75581;50.088;19.966;2024-03-25T11:01:39;2.10;;;1.60;;
53483;SDS011;75581;50.088;19.966;2024-03-25T11:04:07;2.00;;;1.70;;
53483;SDS011;75581;50.088;19.966;2024-03-25T11:06:36;2.10;;;1.60;;
53483;SDS011;75581;50.088;19.966;2024-03-25T11:09:04;3.20;;;1.60;;
53483;SDS011;75581;50.088;19.966;2024-03-25T11:11:35;2.30;;;1.90;;
53483;SDS011;75581;50.088;19.966;2024-03-25T11:14:04;6.20;;;2.10;;
53483;SDS011;75581;50.088;19.966;2024-03-25T11:16:31;2.00;;;1.60;;
53483;SDS011;75581;50.088;19.966;2024-03-25T11:19:03;3.00;;;1.60;;
53483;SDS011;75581;50.088;19.966;2024-03-25T11:21:31;1.60;;;1.50;;
53483;SDS011;75581;50.088;19.966;2024-03-25T11:24:08;2.30;;;1.60;;
53483;SDS011;75581;50.088;19.966;2024-03-25T11:26:40;3.00;;;1.80;;
53483;SDS011;75581;50.088;19.966;2024-03-25T11:29:08;2.10;;;1.50;;
53483;SDS011;75581;50.088;19.966;2024-03-25T11:31:38;1.40;;;1.30;;
53483;SDS011;75581;50.088;19.966;2024-03-25T11:34:06;2.90;;;1.80;;
53483;SDS011;75581;50.088;19.966;2024-03-25T11:36:35;2.20;;;1.60;;
53483;SDS011;75581;50.088;19.966;2024-03-25T11:39:04;2.90;;;2.10;;
53483;SDS011;75581;50.088;19.966;2024-03-25T11:41:40;2.90;;;1.50;;
53483;SDS011;75581;50.088;19.966;2024-03-25T11:44:08;1.50;;;1.30;;
53483;SDS011;75581;50.088;19.966;2024-03-25T11:46:36;2.20;;;1.60;;
53483;SDS011;75581;50.088;19.966;2024-03-25T11:49:05;2.10;;;1.10;;
53483;SDS011;75581;50.088;19.966;2024-03-25T11:51:34;1.30;;;1.10;;
53483;SDS011;75581;50.088;19.966;2024-03-25T11:54:03;1.00;;;0.90;;
53483;SDS011;75581;50.088;19.966;2024-03-25T11:56:31;1.40;;;1.10;;
53483;SDS011;75581;50.088;19.966;2024-03-25T11:59:00;1.30;;;1.10;;
53483;SDS011;75581;50.088;19.966;2024-03-25T12:01:28;1.60;;;1.10;;
53483;SDS011;75581;50.088;19.966;2024-03-25T12:03:56;2.50;;;1.50;;
53483;SDS011;75581;50.088;19.966;2024-03-25T12:06:24;6.40;;;3.20;;
53483;SDS011;75581;50.088;19.966;2024-03-25T12:08:52;2.60;;;1.90;;
53483;SDS011;75581;50.088;19.966;2024-03-25T12:11:38;2.40;;;1.70;;
53483;SDS011;75581;50.088;19.966;2024-03-25T12:14:05;2.40;;;1.70;;
53483;SDS011;75581;50.088;19.966;2024-03-25T12:16:33;2.00;;;1.80;;
53483;SDS011;75581;50.088;19.966;2024-03-25T12:19:01;2.80;;;2.10;;
53483;SDS011;75581;50.088;19.966;2024-03-25T12:21:30;3.00;;;2.10;;
53483;SDS011;75581;50.088;19.966;2024-03-25T12:23:59;2.90;;;2.40;;
53483;SDS011;75581;50.088;19.966;2024-03-25T12:26:27;3.10;;;2.20;;
53483;SDS011;75581;50.088;19.966;2024-03-25T12:28:55;3.10;;;2.20;;
53483;SDS011;75581;50.088;19.966;2024-03-25T12:31:24;2.20;;;1.90;;
53483;SDS011;75581;50.088;19.966;2024-03-25T12:33:52;3.10;;;2.60;;
53483;SDS011;75581;50.088;19.966;2024-03-25T12:36:20;3.90;;;2.60;;
53483;SDS011;75581;50.088;19.966;2024-03-25T12:38:55;3.20;;;2.50;;
53483;SDS011;75581;50.088;19.966;2024-03-25T12:41:24;3.80;;;3.00;;
53483;SDS011;75581;50.088;19.966;2024-03-25T12:43:52;4.50;;;2.80;;
53483;SDS011;75581;50.088;19.966;2024-03-25T12:46:20;8.10;;;3.00;;
53483;SDS011;75581;50.088;19.966;2024-03-25T12:48:48;4.50;;;3.20;;
53483;SDS011;75581;50.088;19.966;2024-03-25T12:51:15;4.90;;;2.60;;
53483;SDS011;75581;50.088;19.966;2024-03-25T12:53:43;3.10;;;2.30;;
53483;SDS011;75581;50.088;19.966;2024-03-25T12:56:11;2.60;;;1.90;;
53483;SDS011;75581;50.088;19.966;2024-03-25T12:58:39;2.60;;;2.10;;
53483;SDS011;75581;50.088;19.966;2024-03-25T13:01:07;3.40;;;2.20;;
53483;SDS011;75581;50.088;19.966;2024-03-25T13:03:35;3.00;;;2.30;;
53483;SDS011;75581;50.088;19.966;2024-03-25T13:06:03;2.90;;;2.00;;
53483;SDS011;75581;50.088;19.966;2024-03-25T13:08:31;3.20;;;2.20;;
53483;SDS011;75581;50.088;19.966;2024-03-25T13:10:59;4.70;;;2.30;;
53483;SDS011;75581;50.088;19.966;2024-03-25T13:13:27;2.20;;;1.90;;
53483;SDS011;75581;50.088;19.966;2024-03-25T13:15:56;2.60;;;2.00;;
53483;SDS011;75581;50.088;19.966;2024-03-25T13:18:23;2.40;;;1.50;;
53483;SDS011;75581;50.088;19.966;2024-03-25T13:20:51;1.90;;;1.40;;
53483;SDS011;75581;50.088;19.966;2024-03-25T13:23:19;1.50;;;1.20;;
53483;SDS011;75581;50.088;19.966;2024-03-25T13:25:47;2.80;;;1.50;;
53483;SDS011;75581;50.088;19.966;2024-03-25T13:28:16;2.00;;;1.10;;
53483;SDS011;75581;50.088;19.966;2024-03-25T13:30:44;1.30;;;1.00;;
53483;SDS011;75581;50.088;19.966;2024-03-25T13:33:11;2.30;;;1.20;;
53483;SDS011;75581;50.088;19.966;2024-03-25T13:35:39;1.30;;;1.10;;
53483;SDS011;75581;50.088;19.966;2024-03-25T13:38:07;2.00;;;1.50;;
53483;SDS011;75581;50.088;19.966;2024-03-25T13:40:34;1.30;;;1.20;;
53483;SDS011;75581;50.088;19.966;2024-03-25T13:43:02;3.30;;;1.70;;
53483;SDS011;75581;50.088;19.966;2024-03-25T13:45:32;1.80;;;1.40;;
53483;SDS011;75581;50.088;19.966;2024-03-25T13:47:59;2.60;;;1.70;;
53483;SDS011;75581;50.088;19.966;2024-03-25T13:50:27;2.50;;;1.90;;
53483;SDS011;75581;50.088;19.966;2024-03-25T13:52:55;3.50;;;2.40;;
53483;SDS011;75581;50.088;19.966;2024-03-25T13:55:22;2.50;;;1.70;;
53483;SDS011;75581;50.088;19.966;2024-03-25T13:57:50;2.60;;;2.10;;
53483;SDS011;75581;50.088;19.966;2024-03-25T14:00:18;4.00;;;2.00;;
53483;SDS011;75581;50.088;19.966;2024-03-25T14:02:46;2.70;;;2.00;;
53483;SDS011;75581;50.088;19.966;2024-03-25T14:05:14;2.40;;;1.50;;
53483;SDS011;75581;50.088;19.966;2024-03-25T14:07:41;4.00;;;2.30;;
53483;SDS011;75581;50.088;19.966;2024-03-25T14:10:09;4.80;;;1.90;;
53483;SDS011;75581;50.088;19.966;2024-03-25T14:12:38;2.30;;;1.90;;
53483;SDS011;75581;50.088;19.966;2024-03-25T14:15:06;2.40;;;1.70;;
53483;SDS011;75581;50.088;19.966;2024-03-25T14:17:34;2.20;;;1.70;;
53483;SDS011;75581;50.088;19.966;2024-03-25T14:20:02;1.90;;;1.50;;
53483;SDS011;75581;50.088;19.966;2024-03-25T14:22:33;2.00;;;1.60;;
53483;SDS011;75581;50.088;19.966;2024-03-25T14:25:01;2.60;;;1.40;;
53483;SDS011;75581;50.088;19.966;2024-03-25T14:27:29;4.20;;;1.10;;
53483;SDS011;75581;50.088;19.966;2024-03-25T14:29:57;1.20;;;1.00;;
53483;SDS011;75581;50.088;19.966;2024-03-25T14:32:25;2.80;;;1.30;;
53483;SDS011;75581;50.088;19.966;2024-03-25T14:34:52;1.20;;;1.10;;
53483;SDS011;75581;50.088;19.966;2024-03-25T14:37:20;2.20;;;1.60;;
53483;SDS011;75581;50.088;19.966;2024-03-25T14:39:48;2.80;;;1.90;;